Redtown, Texas
Current Conditions -  °F | °C
As of 10:15 AM on Thursday 23 Oct 2014 (Local Time) from KOCH Reporting Station
Clear Clear  
Wind Chill: 61°   Ceiling: Unl
Heat Index: 61°   Visibility: 10mi
Dew Point: 52°   Wind: 3mph
Humidity: 72%   Direction: 120°ESE
Pressure: 30.18"   Gusts: NA
Location:  31.426°N, 94.8655°W
Report Text: KOCH 231515Z AUTO 12003KT 10SM CLR 16/11 A3018 RMK AO1
Loading
Personal Weather Stations






























Interactive Weather Map
Tropical Storm Tracking
New forecast layout! Learn more

10-Day Weather Forecast

Advertisements
Track Severe Weather on mobile